Orrville, Alabama
Current Conditions -  °F | °C
As of 4:55 PM on Monday 24 Nov 2014 (Local Time) from KSEM Reporting Station
Clear Clear  
Wind Chill: 63°   Ceiling: Unl
Heat Index: 63°   Visibility: 10mi
Dew Point: 46°   Wind: 9mph
Humidity: 55%   Direction: 300°WNW
Pressure: 29.9"   Gusts: NA
Location:  32.31°N, 87.25°W
Report Text: KSEM 242255Z AUTO 30008KT 10SM CLR 17/08 A2990 RMK AO2
Loading
Personal Weather Stations






























Interactive Weather Map New forecast layout! Learn more

10-Day Weather Forecast

Advertisements
Track Severe Weather on mobile